Terminal Aerodrome Forecast
Issued by NWS

Current Version | Previous Version | Graphics & Text | Print | Product List | Glossary On
Versions: 1 2 3 4 5 6 7 8 9 10 11 12 13 14 15 16 17 18
000
FTUS41 KILN 281300 AAA
TAFLCK
TAF AMD
KLCK 281335Z 2814/2912 30010KT P6SM BKN022
     FM281600 31013KT P6SM VCSH BKN025
     FM282300 32009KT P6SM BKN035
     FM290300 32005KT P6SM SCT040=

USA.gov is the U.S. government's official web portal to all federal, state and local government web resources and services.